Terminal Aerodrome Forecast
Issued by NWS

Home | Current Version | Previous Version | Text Only | Print | Product List | Glossary On
Versions: 1 2 3 4 5 6 7 8 9 10 11 12 13 14 15 16 17
630
FTUS41 KRLX 231120
TAFCKB
TAF
KCKB 231120Z 2312/2412 10007KT P6SM SCT250
     FM231300 10008G18KT P6SM FEW250
     FM231600 12012G22KT P6SM FEW250
     FM232200 14014G25KT P6SM -SHRA OVC080
     FM240100 14007KT P6SM OVC070=

USA.gov is the U.S. government's official web portal to all federal, state and local government web resources and services.